sensor_id;sensor_type;location;lat;lon;timestamp;P1;durP1;ratioP1;P2;durP2;ratioP2
38937;SDS011;24727;51.974;20.868;2023-09-12T00:01:48;20.45;;;18.30;;
38937;SDS011;24727;51.974;20.868;2023-09-12T00:04:14;21.75;;;18.40;;
38937;SDS011;24727;51.974;20.868;2023-09-12T00:06:40;21.08;;;17.77;;
38937;SDS011;24727;51.974;20.868;2023-09-12T00:09:06;22.17;;;19.40;;
38937;SDS011;24727;51.974;20.868;2023-09-12T00:11:34;21.25;;;19.13;;
38937;SDS011;24727;51.974;20.868;2023-09-12T00:14:00;20.77;;;18.58;;
38937;SDS011;24727;51.974;20.868;2023-09-12T00:16:25;20.02;;;17.88;;
38937;SDS011;24727;51.974;20.868;2023-09-12T00:18:51;21.45;;;19.15;;
38937;SDS011;24727;51.974;20.868;2023-09-12T00:21:17;21.20;;;17.35;;
38937;SDS011;24727;51.974;20.868;2023-09-12T00:23:44;20.73;;;18.52;;
38937;SDS011;24727;51.974;20.868;2023-09-12T00:26:10;24.05;;;18.42;;
38937;SDS011;24727;51.974;20.868;2023-09-12T00:28:36;20.92;;;18.73;;
38937;SDS011;24727;51.974;20.868;2023-09-12T00:31:04;22.80;;;17.67;;
38937;SDS011;24727;51.974;20.868;2023-09-12T00:33:29;19.00;;;16.90;;
38937;SDS011;24727;51.974;20.868;2023-09-12T00:35:55;20.65;;;17.08;;
38937;SDS011;24727;51.974;20.868;2023-09-12T00:38:21;18.42;;;16.17;;
38937;SDS011;24727;51.974;20.868;2023-09-12T00:40:47;21.35;;;16.23;;
38937;SDS011;24727;51.974;20.868;2023-09-12T00:43:20;21.23;;;17.15;;
38937;SDS011;24727;51.974;20.868;2023-09-12T00:45:46;17.40;;;15.10;;
38937;SDS011;24727;51.974;20.868;2023-09-12T00:48:14;18.98;;;14.95;;
38937;SDS011;24727;51.974;20.868;2023-09-12T00:50:48;18.23;;;15.27;;
38937;SDS011;24727;51.974;20.868;2023-09-12T00:53:15;19.10;;;14.60;;
38937;SDS011;24727;51.974;20.868;2023-09-12T00:55:44;17.67;;;15.88;;
38937;SDS011;24727;51.974;20.868;2023-09-12T00:58:16;17.38;;;15.13;;
38937;SDS011;24727;51.974;20.868;2023-09-12T01:03:21;25.02;;;15.75;;
38937;SDS011;24727;51.974;20.868;2023-09-12T01:05:47;17.02;;;14.50;;
38937;SDS011;24727;51.974;20.868;2023-09-12T01:08:15;19.95;;;15.13;;
38937;SDS011;24727;51.974;20.868;2023-09-12T01:10:41;17.00;;;15.05;;
38937;SDS011;24727;51.974;20.868;2023-09-12T01:13:12;16.45;;;13.82;;
38937;SDS011;24727;51.974;20.868;2023-09-12T01:15:40;19.20;;;14.32;;
38937;SDS011;24727;51.974;20.868;2023-09-12T01:18:08;19.05;;;15.40;;
38937;SDS011;24727;51.974;20.868;2023-09-12T01:20:35;18.15;;;15.10;;
38937;SDS011;24727;51.974;20.868;2023-09-12T01:23:08;20.77;;;14.15;;
38937;SDS011;24727;51.974;20.868;2023-09-12T01:26:07;23.00;;;15.27;;
38937;SDS011;24727;51.974;20.868;2023-09-12T01:28:55;20.48;;;16.13;;
38937;SDS011;24727;51.974;20.868;2023-09-12T01:31:23;17.00;;;14.15;;
38937;SDS011;24727;51.974;20.868;2023-09-12T01:33:54;17.95;;;14.82;;
38937;SDS011;24727;51.974;20.868;2023-09-12T01:36:24;16.23;;;14.50;;
38937;SDS011;24727;51.974;20.868;2023-09-12T01:38:50;19.98;;;15.32;;
38937;SDS011;24727;51.974;20.868;2023-09-12T01:41:17;20.27;;;15.18;;
38937;SDS011;24727;51.974;20.868;2023-09-12T01:43:44;18.42;;;14.93;;
38937;SDS011;24727;51.974;20.868;2023-09-12T01:46:11;17.42;;;15.25;;
38937;SDS011;24727;51.974;20.868;2023-09-12T01:48:39;17.75;;;15.45;;
38937;SDS011;24727;51.974;20.868;2023-09-12T01:51:07;16.83;;;13.23;;
38937;SDS011;24727;51.974;20.868;2023-09-12T01:53:52;18.15;;;13.45;;
38937;SDS011;24727;51.974;20.868;2023-09-12T01:56:24;15.32;;;13.57;;
38937;SDS011;24727;51.974;20.868;2023-09-12T01:58:51;16.92;;;14.27;;
38937;SDS011;24727;51.974;20.868;2023-09-12T02:01:18;20.00;;;15.48;;
38937;SDS011;24727;51.974;20.868;2023-09-12T02:03:45;18.55;;;15.18;;
38937;SDS011;24727;51.974;20.868;2023-09-12T02:06:12;18.60;;;15.23;;
38937;SDS011;24727;51.974;20.868;2023-09-12T02:08:38;17.42;;;14.63;;
38937;SDS011;24727;51.974;20.868;2023-09-12T02:11:05;17.73;;;14.80;;
38937;SDS011;24727;51.974;20.868;2023-09-12T02:13:31;16.58;;;14.50;;
38937;SDS011;24727;51.974;20.868;2023-09-12T02:16:00;15.68;;;13.90;;
38937;SDS011;24727;51.974;20.868;2023-09-12T02:18:28;20.10;;;15.00;;
38937;SDS011;24727;51.974;20.868;2023-09-12T02:20:58;17.27;;;14.30;;
38937;SDS011;24727;51.974;20.868;2023-09-12T02:23:25;18.80;;;14.43;;
38937;SDS011;24727;51.974;20.868;2023-09-12T02:25:52;18.15;;;14.85;;
38937;SDS011;24727;51.974;20.868;2023-09-12T02:28:19;20.40;;;14.13;;
38937;SDS011;24727;51.974;20.868;2023-09-12T02:30:45;19.45;;;13.93;;
38937;SDS011;24727;51.974;20.868;2023-09-12T02:33:12;22.17;;;14.57;;
38937;SDS011;24727;51.974;20.868;2023-09-12T02:35:38;16.60;;;13.10;;
38937;SDS011;24727;51.974;20.868;2023-09-12T02:38:05;17.15;;;12.63;;
38937;SDS011;24727;51.974;20.868;2023-09-12T02:40:32;21.35;;;14.77;;
38937;SDS011;24727;51.974;20.868;2023-09-12T02:42:58;17.38;;;13.88;;
38937;SDS011;24727;51.974;20.868;2023-09-12T02:45:26;18.10;;;14.25;;
38937;SDS011;24727;51.974;20.868;2023-09-12T02:47:52;18.25;;;14.05;;
38937;SDS011;24727;51.974;20.868;2023-09-12T02:50:19;16.27;;;13.52;;
38937;SDS011;24727;51.974;20.868;2023-09-12T02:52:45;15.88;;;13.65;;
38937;SDS011;24727;51.974;20.868;2023-09-12T02:55:12;15.68;;;13.50;;
38937;SDS011;24727;51.974;20.868;2023-09-12T02:57:38;16.63;;;13.88;;
38937;SDS011;24727;51.974;20.868;2023-09-12T03:00:04;18.38;;;13.98;;
38937;SDS011;24727;51.974;20.868;2023-09-12T03:02:45;17.38;;;14.60;;
38937;SDS011;24727;51.974;20.868;2023-09-12T03:05:14;16.65;;;14.65;;
38937;SDS011;24727;51.974;20.868;2023-09-12T03:07:41;15.93;;;12.77;;
38937;SDS011;24727;51.974;20.868;2023-09-12T03:10:07;28.42;;;15.48;;
38937;SDS011;24727;51.974;20.868;2023-09-12T03:12:35;18.60;;;15.82;;
38937;SDS011;24727;51.974;20.868;2023-09-12T03:15:04;18.23;;;14.40;;
38937;SDS011;24727;51.974;20.868;2023-09-12T03:17:30;17.65;;;13.95;;
38937;SDS011;24727;51.974;20.868;2023-09-12T03:19:57;14.88;;;12.70;;
38937;SDS011;24727;51.974;20.868;2023-09-12T03:22:23;13.95;;;12.32;;
38937;SDS011;24727;51.974;20.868;2023-09-12T03:24:49;18.27;;;14.80;;
38937;SDS011;24727;51.974;20.868;2023-09-12T03:27:16;21.70;;;15.32;;
38937;SDS011;24727;51.974;20.868;2023-09-12T03:29:42;17.88;;;13.88;;
38937;SDS011;24727;51.974;20.868;2023-09-12T03:32:12;16.52;;;14.40;;
38937;SDS011;24727;51.974;20.868;2023-09-12T03:34:38;18.92;;;15.60;;
38937;SDS011;24727;51.974;20.868;2023-09-12T03:37:04;20.10;;;13.45;;
38937;SDS011;24727;51.974;20.868;2023-09-12T03:39:31;14.57;;;12.40;;
38937;SDS011;24727;51.974;20.868;2023-09-12T03:41:57;17.67;;;13.57;;
38937;SDS011;24727;51.974;20.868;2023-09-12T03:44:23;16.80;;;14.05;;
38937;SDS011;24727;51.974;20.868;2023-09-12T03:46:49;27.52;;;14.88;;
38937;SDS011;24727;51.974;20.868;2023-09-12T03:49:16;18.05;;;13.52;;
38937;SDS011;24727;51.974;20.868;2023-09-12T03:51:41;22.13;;;14.25;;
38937;SDS011;24727;51.974;20.868;2023-09-12T03:54:13;18.73;;;14.45;;
38937;SDS011;24727;51.974;20.868;2023-09-12T03:56:46;17.30;;;13.48;;
38937;SDS011;24727;51.974;20.868;2023-09-12T03:59:11;15.07;;;12.55;;
38937;SDS011;24727;51.974;20.868;2023-09-12T04:01:39;16.80;;;13.50;;
38937;SDS011;24727;51.974;20.868;2023-09-12T04:04:05;17.63;;;14.23;;
38937;SDS011;24727;51.974;20.868;2023-09-12T04:06:31;17.35;;;13.60;;
38937;SDS011;24727;51.974;20.868;2023-09-12T04:08:57;24.08;;;14.43;;
38937;SDS011;24727;51.974;20.868;2023-09-12T04:11:23;21.58;;;13.50;;
38937;SDS011;24727;51.974;20.868;2023-09-12T04:13:50;22.73;;;14.38;;
38937;SDS011;24727;51.974;20.868;2023-09-12T04:16:17;18.40;;;13.40;;
38937;SDS011;24727;51.974;20.868;2023-09-12T04:18:44;17.08;;;14.27;;
38937;SDS011;24727;51.974;20.868;2023-09-12T04:21:10;23.42;;;14.73;;
38937;SDS011;24727;51.974;20.868;2023-09-12T04:23:38;20.90;;;13.35;;
38937;SDS011;24727;51.974;20.868;2023-09-12T04:26:04;12.93;;;11.30;;
38937;SDS011;24727;51.974;20.868;2023-09-12T04:28:29;13.00;;;11.52;;
38937;SDS011;24727;51.974;20.868;2023-09-12T04:31:05;16.55;;;12.77;;
38937;SDS011;24727;51.974;20.868;2023-09-12T04:33:33;14.85;;;12.43;;
38937;SDS011;24727;51.974;20.868;2023-09-12T04:36:02;14.68;;;12.73;;
38937;SDS011;24727;51.974;20.868;2023-09-12T04:38:30;15.80;;;13.32;;
38937;SDS011;24727;51.974;20.868;2023-09-12T04:41:00;16.58;;;14.00;;
38937;SDS011;24727;51.974;20.868;2023-09-12T04:43:31;18.80;;;13.75;;
38937;SDS011;24727;51.974;20.868;2023-09-12T04:45:58;16.30;;;13.88;;
38937;SDS011;24727;51.974;20.868;2023-09-12T04:48:24;20.52;;;14.48;;
38937;SDS011;24727;51.974;20.868;2023-09-12T04:50:52;17.17;;;13.80;;
38937;SDS011;24727;51.974;20.868;2023-09-12T04:53:18;17.02;;;13.32;;
38937;SDS011;24727;51.974;20.868;2023-09-12T04:55:44;17.35;;;14.00;;
38937;SDS011;24727;51.974;20.868;2023-09-12T04:58:10;16.48;;;13.60;;
38937;SDS011;24727;51.974;20.868;2023-09-12T05:00:36;20.80;;;13.63;;
38937;SDS011;24727;51.974;20.868;2023-09-12T05:03:05;18.15;;;13.57;;
38937;SDS011;24727;51.974;20.868;2023-09-12T05:05:31;16.02;;;13.52;;
38937;SDS011;24727;51.974;20.868;2023-09-12T05:08:01;18.20;;;14.30;;
38937;SDS011;24727;51.974;20.868;2023-09-12T05:10:35;16.08;;;14.23;;
38937;SDS011;24727;51.974;20.868;2023-09-12T05:13:04;16.70;;;14.50;;
38937;SDS011;24727;51.974;20.868;2023-09-12T05:15:30;15.18;;;13.57;;
38937;SDS011;24727;51.974;20.868;2023-09-12T05:17:56;17.85;;;14.07;;
38937;SDS011;24727;51.974;20.868;2023-09-12T05:20:23;18.20;;;13.55;;
38937;SDS011;24727;51.974;20.868;2023-09-12T05:22:50;17.50;;;14.45;;
38937;SDS011;24727;51.974;20.868;2023-09-12T05:25:17;16.23;;;13.68;;
38937;SDS011;24727;51.974;20.868;2023-09-12T05:27:42;16.75;;;14.18;;
38937;SDS011;24727;51.974;20.868;2023-09-12T05:30:09;16.27;;;13.80;;
38937;SDS011;24727;51.974;20.868;2023-09-12T05:32:36;19.30;;;13.55;;
38937;SDS011;24727;51.974;20.868;2023-09-12T05:35:02;23.13;;;13.95;;
38937;SDS011;24727;51.974;20.868;2023-09-12T05:37:29;20.05;;;13.93;;
38937;SDS011;24727;51.974;20.868;2023-09-12T05:39:55;15.15;;;13.55;;
38937;SDS011;24727;51.974;20.868;2023-09-12T05:42:21;15.00;;;13.38;;
38937;SDS011;24727;51.974;20.868;2023-09-12T05:44:48;15.02;;;13.43;;
38937;SDS011;24727;51.974;20.868;2023-09-12T05:47:15;16.83;;;13.88;;
38937;SDS011;24727;51.974;20.868;2023-09-12T05:49:41;15.80;;;13.68;;
38937;SDS011;24727;51.974;20.868;2023-09-12T05:52:07;16.83;;;12.75;;
38937;SDS011;24727;51.974;20.868;2023-09-12T05:54:33;15.98;;;12.75;;
38937;SDS011;24727;51.974;20.868;2023-09-12T05:56:59;17.30;;;14.02;;
38937;SDS011;24727;51.974;20.868;2023-09-12T05:59:25;15.35;;;12.90;;
38937;SDS011;24727;51.974;20.868;2023-09-12T06:01:53;16.20;;;13.43;;
38937;SDS011;24727;51.974;20.868;2023-09-12T06:04:19;16.90;;;13.07;;
38937;SDS011;24727;51.974;20.868;2023-09-12T06:06:45;16.33;;;13.50;;
38937;SDS011;24727;51.974;20.868;2023-09-12T06:09:12;18.25;;;13.43;;
38937;SDS011;24727;51.974;20.868;2023-09-12T06:11:38;15.82;;;13.32;;
38937;SDS011;24727;51.974;20.868;2023-09-12T06:14:04;16.42;;;13.23;;
38937;SDS011;24727;51.974;20.868;2023-09-12T06:16:31;16.52;;;13.88;;
38937;SDS011;24727;51.974;20.868;2023-09-12T06:18:56;14.75;;;13.18;;
38937;SDS011;24727;51.974;20.868;2023-09-12T06:21:23;17.58;;;13.60;;
38937;SDS011;24727;51.974;20.868;2023-09-12T06:24:08;17.83;;;14.32;;
38937;SDS011;24727;51.974;20.868;2023-09-12T06:26:47;20.75;;;15.77;;
38937;SDS011;24727;51.974;20.868;2023-09-12T06:29:13;16.33;;;14.52;;
38937;SDS011;24727;51.974;20.868;2023-09-12T06:31:40;21.75;;;14.32;;
38937;SDS011;24727;51.974;20.868;2023-09-12T06:34:07;16.48;;;14.40;;
38937;SDS011;24727;51.974;20.868;2023-09-12T06:36:33;21.10;;;15.02;;
38937;SDS011;24727;51.974;20.868;2023-09-12T06:39:00;18.98;;;14.60;;
38937;SDS011;24727;51.974;20.868;2023-09-12T06:41:28;15.18;;;13.68;;
38937;SDS011;24727;51.974;20.868;2023-09-12T06:43:54;20.92;;;14.40;;
38937;SDS011;24727;51.974;20.868;2023-09-12T06:46:22;28.27;;;15.02;;
38937;SDS011;24727;51.974;20.868;2023-09-12T06:48:50;26.42;;;15.75;;
38937;SDS011;24727;51.974;20.868;2023-09-12T06:51:17;19.75;;;15.05;;
38937;SDS011;24727;51.974;20.868;2023-09-12T06:53:43;22.92;;;16.33;;
38937;SDS011;24727;51.974;20.868;2023-09-12T06:56:10;18.40;;;14.63;;
38937;SDS011;24727;51.974;20.868;2023-09-12T06:58:36;20.05;;;14.35;;
38937;SDS011;24727;51.974;20.868;2023-09-12T07:01:06;23.80;;;16.02;;
38937;SDS011;24727;51.974;20.868;2023-09-12T07:03:38;18.77;;;15.23;;
38937;SDS011;24727;51.974;20.868;2023-09-12T07:06:04;25.17;;;15.80;;
38937;SDS011;24727;51.974;20.868;2023-09-12T07:08:31;25.88;;;14.73;;
38937;SDS011;24727;51.974;20.868;2023-09-12T07:10:58;18.77;;;14.90;;
38937;SDS011;24727;51.974;20.868;2023-09-12T07:13:30;23.13;;;16.13;;
38937;SDS011;24727;51.974;20.868;2023-09-12T07:15:58;23.10;;;15.60;;
38937;SDS011;24727;51.974;20.868;2023-09-12T07:18:25;19.08;;;15.45;;
38937;SDS011;24727;51.974;20.868;2023-09-12T07:21:01;20.05;;;14.45;;
38937;SDS011;24727;51.974;20.868;2023-09-12T07:23:31;20.65;;;16.05;;
38937;SDS011;24727;51.974;20.868;2023-09-12T07:25:57;21.40;;;15.18;;
38937;SDS011;24727;51.974;20.868;2023-09-12T07:28:23;17.55;;;14.18;;
38937;SDS011;24727;51.974;20.868;2023-09-12T07:30:50;21.88;;;14.32;;
38937;SDS011;24727;51.974;20.868;2023-09-12T07:33:17;16.38;;;13.52;;
38937;SDS011;24727;51.974;20.868;2023-09-12T07:35:42;20.08;;;14.65;;
38937;SDS011;24727;51.974;20.868;2023-09-12T07:38:08;20.80;;;13.85;;
38937;SDS011;24727;51.974;20.868;2023-09-12T07:40:35;22.58;;;14.65;;
38937;SDS011;24727;51.974;20.868;2023-09-12T07:43:07;18.13;;;13.75;;
38937;SDS011;24727;51.974;20.868;2023-09-12T07:45:35;12.38;;;11.07;;
38937;SDS011;24727;51.974;20.868;2023-09-12T07:48:05;14.35;;;11.48;;
38937;SDS011;24727;51.974;20.868;2023-09-12T07:50:34;16.00;;;12.05;;
38937;SDS011;24727;51.974;20.868;2023-09-12T07:53:01;14.73;;;12.38;;
38937;SDS011;24727;51.974;20.868;2023-09-12T07:55:27;17.13;;;13.02;;
38937;SDS011;24727;51.974;20.868;2023-09-12T07:57:57;14.05;;;12.57;;
38937;SDS011;24727;51.974;20.868;2023-09-12T08:00:24;16.30;;;12.55;;
38937;SDS011;24727;51.974;20.868;2023-09-12T08:02:49;14.40;;;12.45;;
38937;SDS011;24727;51.974;20.868;2023-09-12T08:05:15;14.23;;;10.45;;
38937;SDS011;24727;51.974;20.868;2023-09-12T08:10:20;16.58;;;11.63;;
38937;SDS011;24727;51.974;20.868;2023-09-12T08:12:46;11.90;;;9.27;;
38937;SDS011;24727;51.974;20.868;2023-09-12T08:15:11;12.65;;;11.40;;
38937;SDS011;24727;51.974;20.868;2023-09-12T08:17:38;12.10;;;10.77;;
38937;SDS011;24727;51.974;20.868;2023-09-12T08:20:05;11.95;;;10.60;;
38937;SDS011;24727;51.974;20.868;2023-09-12T08:22:35;13.50;;;10.48;;
38937;SDS011;24727;51.974;20.868;2023-09-12T08:25:04;12.30;;;11.10;;
38937;SDS011;24727;51.974;20.868;2023-09-12T08:27:31;11.85;;;10.15;;
38937;SDS011;24727;51.974;20.868;2023-09-12T08:29:57;13.68;;;10.20;;
38937;SDS011;24727;51.974;20.868;2023-09-12T08:32:24;14.90;;;10.73;;
38937;SDS011;24727;51.974;20.868;2023-09-12T08:34:51;10.50;;;9.50;;
38937;SDS011;24727;51.974;20.868;2023-09-12T08:37:17;11.27;;;10.10;;
38937;SDS011;24727;51.974;20.868;2023-09-12T08:39:44;14.95;;;10.60;;
38937;SDS011;24727;51.974;20.868;2023-09-12T08:42:14;10.60;;;8.73;;
38937;SDS011;24727;51.974;20.868;2023-09-12T08:44:41;11.18;;;9.48;;
38937;SDS011;24727;51.974;20.868;2023-09-12T08:47:11;13.30;;;9.32;;
38937;SDS011;24727;51.974;20.868;2023-09-12T08:49:40;9.07;;;7.65;;
38937;SDS011;24727;51.974;20.868;2023-09-12T08:52:07;13.63;;;9.63;;
38937;SDS011;24727;51.974;20.868;2023-09-12T08:54:33;13.80;;;9.45;;
38937;SDS011;24727;51.974;20.868;2023-09-12T08:57:03;11.43;;;9.57;;
38937;SDS011;24727;51.974;20.868;2023-09-12T08:59:34;10.60;;;9.55;;
38937;SDS011;24727;51.974;20.868;2023-09-12T09:02:00;10.40;;;8.80;;
38937;SDS011;24727;51.974;20.868;2023-09-12T09:04:28;9.35;;;8.40;;
38937;SDS011;24727;51.974;20.868;2023-09-12T09:06:56;10.45;;;9.30;;
38937;SDS011;24727;51.974;20.868;2023-09-12T09:09:23;11.60;;;10.50;;
38937;SDS011;24727;51.974;20.868;2023-09-12T09:11:50;13.05;;;10.20;;
38937;SDS011;24727;51.974;20.868;2023-09-12T09:14:16;10.25;;;9.20;;
38937;SDS011;24727;51.974;20.868;2023-09-12T09:16:41;12.43;;;9.75;;
38937;SDS011;24727;51.974;20.868;2023-09-12T09:19:08;12.43;;;9.98;;
38937;SDS011;24727;51.974;20.868;2023-09-12T09:21:37;11.07;;;10.02;;
38937;SDS011;24727;51.974;20.868;2023-09-12T09:24:10;11.68;;;10.30;;
38937;SDS011;24727;51.974;20.868;2023-09-12T09:26:46;13.80;;;10.40;;
38937;SDS011;24727;51.974;20.868;2023-09-12T09:29:17;9.50;;;8.40;;
38937;SDS011;24727;51.974;20.868;2023-09-12T09:31:45;9.85;;;8.85;;
38937;SDS011;24727;51.974;20.868;2023-09-12T09:34:17;9.80;;;8.75;;
38937;SDS011;24727;51.974;20.868;2023-09-12T09:39:18;10.40;;;8.82;;
38937;SDS011;24727;51.974;20.868;2023-09-12T09:41:53;10.57;;;9.57;;
38937;SDS011;24727;51.974;20.868;2023-09-12T09:44:24;14.93;;;9.43;;
38937;SDS011;24727;51.974;20.868;2023-09-12T09:49:25;9.93;;;8.40;;
38937;SDS011;24727;51.974;20.868;2023-09-12T09:51:52;12.05;;;9.20;;
38937;SDS011;24727;51.974;20.868;2023-09-12T09:54:23;11.07;;;10.00;;
38937;SDS011;24727;51.974;20.868;2023-09-12T09:56:54;9.55;;;8.25;;
38937;SDS011;24727;51.974;20.868;2023-09-12T09:59:23;8.70;;;8.00;;
38937;SDS011;24727;51.974;20.868;2023-09-12T10:01:50;9.90;;;8.52;;
38937;SDS011;24727;51.974;20.868;2023-09-12T10:04:24;8.52;;;7.82;;
38937;SDS011;24727;51.974;20.868;2023-09-12T10:06:52;9.73;;;8.63;;
38937;SDS011;24727;51.974;20.868;2023-09-12T10:09:23;13.75;;;8.73;;
38937;SDS011;24727;51.974;20.868;2023-09-12T10:11:51;11.57;;;9.05;;
38937;SDS011;24727;51.974;20.868;2023-09-12T10:14:20;10.40;;;9.30;;
38937;SDS011;24727;51.974;20.868;2023-09-12T10:16:48;13.18;;;10.07;;
38937;SDS011;24727;51.974;20.868;2023-09-12T10:24:19;10.77;;;9.80;;
38937;SDS011;24727;51.974;20.868;2023-09-12T10:26:48;12.75;;;10.57;;
38937;SDS011;24727;51.974;20.868;2023-09-12T10:29:15;10.23;;;9.32;;
38937;SDS011;24727;51.974;20.868;2023-09-12T10:31:41;11.20;;;8.98;;
38937;SDS011;24727;51.974;20.868;2023-09-12T10:34:10;11.55;;;10.38;;
38937;SDS011;24727;51.974;20.868;2023-09-12T10:36:43;14.15;;;11.40;;
38937;SDS011;24727;51.974;20.868;2023-09-12T10:39:10;12.30;;;10.45;;
38937;SDS011;24727;51.974;20.868;2023-09-12T10:41:40;10.90;;;9.77;;
38937;SDS011;24727;51.974;20.868;2023-09-12T10:44:09;10.88;;;9.85;;
38937;SDS011;24727;51.974;20.868;2023-09-12T10:46:40;15.73;;;10.27;;
38937;SDS011;24727;51.974;20.868;2023-09-12T10:49:10;10.98;;;10.02;;
38937;SDS011;24727;51.974;20.868;2023-09-12T10:51:46;11.23;;;10.10;;
38937;SDS011;24727;51.974;20.868;2023-09-12T10:54:14;13.00;;;10.02;;
38937;SDS011;24727;51.974;20.868;2023-09-12T10:56:42;11.07;;;10.00;;
38937;SDS011;24727;51.974;20.868;2023-09-12T10:59:10;12.68;;;9.73;;
38937;SDS011;24727;51.974;20.868;2023-09-12T11:01:38;11.00;;;9.10;;
38937;SDS011;24727;51.974;20.868;2023-09-12T11:06:50;10.75;;;9.23;;
38937;SDS011;24727;51.974;20.868;2023-09-12T11:09:26;10.90;;;9.85;;
38937;SDS011;24727;51.974;20.868;2023-09-12T11:11:56;11.35;;;10.25;;
38937;SDS011;24727;51.974;20.868;2023-09-12T11:14:29;10.13;;;9.23;;
38937;SDS011;24727;51.974;20.868;2023-09-12T11:19:46;11.63;;;10.23;;
38937;SDS011;24727;51.974;20.868;2023-09-12T11:22:36;13.05;;;10.23;;
38937;SDS011;24727;51.974;20.868;2023-09-12T11:25:22;9.88;;;9.07;;
38937;SDS011;24727;51.974;20.868;2023-09-12T11:30:22;10.65;;;9.43;;
38937;SDS011;24727;51.974;20.868;2023-09-12T11:32:50;11.35;;;10.27;;
38937;SDS011;24727;51.974;20.868;2023-09-12T11:35:25;10.88;;;9.60;;
38937;SDS011;24727;51.974;20.868;2023-09-12T11:37:54;10.88;;;9.88;;
38937;SDS011;24727;51.974;20.868;2023-09-12T11:40:25;12.73;;;10.27;;
38937;SDS011;24727;51.974;20.868;2023-09-12T11:43:08;11.75;;;9.52;;
38937;SDS011;24727;51.974;20.868;2023-09-12T11:45:51;10.80;;;9.75;;
38937;SDS011;24727;51.974;20.868;2023-09-12T11:48:18;11.77;;;10.20;;
38937;SDS011;24727;51.974;20.868;2023-09-12T11:50:54;12.38;;;10.32;;
38937;SDS011;24727;51.974;20.868;2023-09-12T11:53:22;11.27;;;10.20;;
38937;SDS011;24727;51.974;20.868;2023-09-12T11:55:53;11.60;;;10.45;;
38937;SDS011;24727;51.974;20.868;2023-09-12T11:58:22;10.43;;;9.48;;
38937;SDS011;24727;51.974;20.868;2023-09-12T12:00:50;11.18;;;10.05;;
38937;SDS011;24727;51.974;20.868;2023-09-12T12:03:18;11.02;;;9.90;;
38937;SDS011;24727;51.974;20.868;2023-09-12T12:05:45;11.52;;;9.65;;
38937;SDS011;24727;51.974;20.868;2023-09-12T12:08:12;10.82;;;9.73;;
38937;SDS011;24727;51.974;20.868;2023-09-12T12:10:39;11.30;;;9.60;;
38937;SDS011;24727;51.974;20.868;2023-09-12T12:13:06;10.95;;;10.02;;
38937;SDS011;24727;51.974;20.868;2023-09-12T12:15:37;13.05;;;10.55;;
38937;SDS011;24727;51.974;20.868;2023-09-12T12:18:03;11.05;;;9.90;;
38937;SDS011;24727;51.974;20.868;2023-09-12T12:20:29;11.93;;;10.35;;
38937;SDS011;24727;51.974;20.868;2023-09-12T12:22:56;12.20;;;9.85;;
38937;SDS011;24727;51.974;20.868;2023-09-12T12:25:22;11.57;;;10.15;;
38937;SDS011;24727;51.974;20.868;2023-09-12T12:27:49;10.75;;;9.75;;
38937;SDS011;24727;51.974;20.868;2023-09-12T12:30:15;11.23;;;10.13;;
38937;SDS011;24727;51.974;20.868;2023-09-12T12:32:44;13.80;;;10.52;;
38937;SDS011;24727;51.974;20.868;2023-09-12T12:35:21;12.35;;;9.75;;
38937;SDS011;24727;51.974;20.868;2023-09-12T12:37:53;14.77;;;10.25;;
38937;SDS011;24727;51.974;20.868;2023-09-12T12:40:21;11.32;;;10.15;;
38937;SDS011;24727;51.974;20.868;2023-09-12T12:42:48;11.15;;;10.10;;
38937;SDS011;24727;51.974;20.868;2023-09-12T12:45:18;12.27;;;9.90;;
38937;SDS011;24727;51.974;20.868;2023-09-12T12:47:50;11.45;;;10.13;;
38937;SDS011;24727;51.974;20.868;2023-09-12T12:50:17;12.45;;;9.93;;
38937;SDS011;24727;51.974;20.868;2023-09-12T12:52:46;10.77;;;9.65;;
38937;SDS011;24727;51.974;20.868;2023-09-12T12:55:15;10.70;;;9.63;;
38937;SDS011;24727;51.974;20.868;2023-09-12T12:57:43;10.13;;;9.07;;
38937;SDS011;24727;51.974;20.868;2023-09-12T13:00:10;10.73;;;9.68;;
38937;SDS011;24727;51.974;20.868;2023-09-12T13:02:38;11.57;;;9.20;;
38937;SDS011;24727;51.974;20.868;2023-09-12T13:05:07;10.32;;;9.27;;
38937;SDS011;24727;51.974;20.868;2023-09-12T13:07:46;10.40;;;9.35;;
38937;SDS011;24727;51.974;20.868;2023-09-12T13:10:12;9.90;;;8.98;;
38937;SDS011;24727;51.974;20.868;2023-09-12T13:12:40;10.30;;;9.30;;
38937;SDS011;24727;51.974;20.868;2023-09-12T13:15:06;10.02;;;9.23;;
38937;SDS011;24727;51.974;20.868;2023-09-12T13:17:33;11.65;;;9.50;;
38937;SDS011;24727;51.974;20.868;2023-09-12T13:20:00;10.77;;;9.77;;
38937;SDS011;24727;51.974;20.868;2023-09-12T13:22:25;10.38;;;9.38;;
38937;SDS011;24727;51.974;20.868;2023-09-12T13:24:51;10.75;;;9.73;;
38937;SDS011;24727;51.974;20.868;2023-09-12T13:27:18;11.02;;;9.40;;
38937;SDS011;24727;51.974;20.868;2023-09-12T13:29:44;11.15;;;9.45;;
38937;SDS011;24727;51.974;20.868;2023-09-12T13:32:11;10.43;;;9.43;;
38937;SDS011;24727;51.974;20.868;2023-09-12T13:34:40;9.70;;;8.90;;
38937;SDS011;24727;51.974;20.868;2023-09-12T13:37:08;10.85;;;9.75;;
38937;SDS011;24727;51.974;20.868;2023-09-12T13:39:35;10.27;;;9.15;;
38937;SDS011;24727;51.974;20.868;2023-09-12T13:42:01;11.25;;;9.48;;
38937;SDS011;24727;51.974;20.868;2023-09-12T13:44:29;13.57;;;9.90;;
38937;SDS011;24727;51.974;20.868;2023-09-12T13:46:55;10.00;;;9.00;;
38937;SDS011;24727;51.974;20.868;2023-09-12T13:49:21;15.65;;;9.30;;
38937;SDS011;24727;51.974;20.868;2023-09-12T13:51:47;10.38;;;9.32;;
38937;SDS011;24727;51.974;20.868;2023-09-12T13:54:14;12.52;;;10.20;;
38937;SDS011;24727;51.974;20.868;2023-09-12T13:56:41;10.63;;;9.55;;
38937;SDS011;24727;51.974;20.868;2023-09-12T13:59:07;10.88;;;9.85;;
38937;SDS011;24727;51.974;20.868;2023-09-12T14:01:34;10.85;;;9.75;;
38937;SDS011;24727;51.974;20.868;2023-09-12T14:04:00;11.52;;;9.10;;
38937;SDS011;24727;51.974;20.868;2023-09-12T14:06:26;11.02;;;9.85;;
38937;SDS011;24727;51.974;20.868;2023-09-12T14:08:52;17.17;;;9.80;;
38937;SDS011;24727;51.974;20.868;2023-09-12T14:11:19;10.57;;;9.48;;
38937;SDS011;24727;51.974;20.868;2023-09-12T14:13:45;10.52;;;9.52;;
38937;SDS011;24727;51.974;20.868;2023-09-12T14:16:13;12.38;;;10.00;;
38937;SDS011;24727;51.974;20.868;2023-09-12T14:18:39;11.10;;;10.07;;
38937;SDS011;24727;51.974;20.868;2023-09-12T14:21:05;10.48;;;9.48;;
38937;SDS011;24727;51.974;20.868;2023-09-12T14:23:31;16.17;;;10.45;;
38937;SDS011;24727;51.974;20.868;2023-09-12T14:25:58;12.25;;;9.35;;
38937;SDS011;24727;51.974;20.868;2023-09-12T14:28:25;10.70;;;9.80;;
38937;SDS011;24727;51.974;20.868;2023-09-12T14:30:54;10.85;;;9.65;;
38937;SDS011;24727;51.974;20.868;2023-09-12T14:33:21;11.13;;;9.85;;
38937;SDS011;24727;51.974;20.868;2023-09-12T14:35:48;10.80;;;9.70;;
38937;SDS011;24727;51.974;20.868;2023-09-12T14:38:14;10.38;;;9.38;;
38937;SDS011;24727;51.974;20.868;2023-09-12T14:40:40;10.50;;;9.50;;
38937;SDS011;24727;51.974;20.868;2023-09-12T14:43:07;10.45;;;9.25;;